Main page
METAR-TAF:

METAR-TAF

Airports :

London-Heathrow, England

Heathrow Airport

latitude: 51-29N, longitude: 000-27W, elevation: 24 m

Current weather observation

The report was made 32 minutes ago, at 06:50 UTC
Wind 10 kt from the West
Temperature 14°C
Humidity 82%
Pressure 1016 hPa
Visibility 10 km or more

METAR: EGLL 190650Z AUTO 27010KT 9999 NCD 14/11 Q1016 NOSIG

Time: 08:22 (07:22 UTC)

Forecast

The report was made 2 hours and 28 minutes ago, at 04:54 UTC
Forecast valid from 19 at 06 UTC to 20 at 12 UTC
Wind 10 kt from the West
Visibility 10 km or more
Few clouds at a height of 3500 ft
Probability 40% :
Temporary
from 19 at 11 UTC to 19 at 17 UTC
Wind 15 kt from the West with gusts up to 25 kt

TAF: EGLL 190454Z 1906/2012 26010KT 9999 FEW035 PROB40 TEMPO 1911/1917 27015G25KT

Weather observations and forecasts of more than 4000 airports (METAR and TAF reports).

The available stations are represented by yellow and red dots on the map.

Hover mouse over dot to see the name of the station.

Then click to see weather observations and forecasts.

To change the map : click on the green buttons with a black cross to zoom in, on the green button with a dash to zoom out, or on the green arrows for adjacent maps.


METAR-TAF: